Zhoushuizi Airport
ZYTL : now visible

Airfield :











YOU CAN JOIN US ON...

 
LOGIN :

Register | Disclaimer

   EN    FR    IT 

 









Legend :    VFR   Marginal VFR   IFR   Intensive IFR   Very Intensive IFR
Visi :
Ceiling :
>= 8 km
>= 3000ft
5 to 8 km
1000 to 3000 ft
1500m to 5 km
500 to 1000 ft
800 to 1500m
200 to 500 ft
< 800m
< 200 ft
Symbols :   Thunderstorms  Fog  Heavy snow  Heavy precipitations  Wind > 20 kt






- Airport Elevation : 107 ft
- IATA code : DLC


ZYTL - Zhoushuizi

CURRENT METAR :
  • 151300Z 29002MPS CAVOK 05/M01 Q1030 NOSIG

EXPIRED METARs :
  • 151230Z VRB01MPS CAVOK 06/M00 Q1030 NOSIG
  • 151200Z VRB01MPS CAVOK 07/M01 Q1030 NOSIG
  • 151130Z 24002MPS CAVOK 08/M02 Q1030 NOSIG
  • 151100Z 25003MPS CAVOK 07/M02 Q1030 NOSIG
  • 151030Z 24002MPS CAVOK 09/M02 Q1030 NOSIG

TAF TAF ZYTL
Valid from the 15 at 12:00 until the 16 at 12:00 UTC


150904Z 1512/1612 27004MPS CAVOK TX16/1605Z TN07/1520Z



MET'MAP, your aeronautical weather chart ! - Copyright ORBIFLY December 2007 - Disclaimer

ORBIFLY MET'MAP TEAM :

Programming & Development : Alexandra Zaïnal
Concept & Development : Baudouin d'Aumeries
Co-Development & Prog : Marc-Olivier Méhu
Technical & hardware support : Manuel Goepfert

Contact : metmap@orbifly.com




SOURCES & CREDITS :

   NOAA       Earth
Advisory